sensor_id;sensor_type;location;lat;lon;timestamp;temperature;humidity
18690;DHT22;9782;52.930;15.562;2023-06-26T00:00:44;17.60;1.60
18690;DHT22;9782;52.930;15.562;2023-06-26T00:03:12;17.50;25.00
18690;DHT22;9782;52.930;15.562;2023-06-26T00:05:42;17.50;97.50
18690;DHT22;9782;52.930;15.562;2023-06-26T00:08:09;17.40;99.90
18690;DHT22;9782;52.930;15.562;2023-06-26T00:10:35;17.40;99.90
18690;DHT22;9782;52.930;15.562;2023-06-26T00:13:02;17.30;99.90
18690;DHT22;9782;52.930;15.562;2023-06-26T00:15:29;17.30;99.90
18690;DHT22;9782;52.930;15.562;2023-06-26T00:17:57;17.30;99.90
18690;DHT22;9782;52.930;15.562;2023-06-26T00:20:24;17.10;1.00
18690;DHT22;9782;52.930;15.562;2023-06-26T00:22:52;17.10;1.00
18690;DHT22;9782;52.930;15.562;2023-06-26T00:25:20;17.10;1.00
18690;DHT22;9782;52.930;15.562;2023-06-26T00:27:47;17.00;1.00
18690;DHT22;9782;52.930;15.562;2023-06-26T00:30:14;17.00;1.00
18690;DHT22;9782;52.930;15.562;2023-06-26T00:32:41;16.90;3.50
18690;DHT22;9782;52.930;15.562;2023-06-26T00:35:08;16.90;99.90
18690;DHT22;9782;52.930;15.562;2023-06-26T00:37:34;16.90;99.90
18690;DHT22;9782;52.930;15.562;2023-06-26T00:40:03;16.80;99.90
18690;DHT22;9782;52.930;15.562;2023-06-26T00:42:31;16.80;1.00
18690;DHT22;9782;52.930;15.562;2023-06-26T00:44:57;16.80;1.00
18690;DHT22;9782;52.930;15.562;2023-06-26T00:47:24;16.80;1.00
18690;DHT22;9782;52.930;15.562;2023-06-26T00:49:51;16.80;1.00
18690;DHT22;9782;52.930;15.562;2023-06-26T00:52:19;16.70;1.00
18690;DHT22;9782;52.930;15.562;2023-06-26T00:54:46;16.70;1.00
18690;DHT22;9782;52.930;15.562;2023-06-26T00:57:14;16.70;1.00
18690;DHT22;9782;52.930;15.562;2023-06-26T00:59:41;16.70;1.00
18690;DHT22;9782;52.930;15.562;2023-06-26T01:02:08;16.70;1.00
18690;DHT22;9782;52.930;15.562;2023-06-26T01:04:35;16.60;1.00
18690;DHT22;9782;52.930;15.562;2023-06-26T01:07:04;16.60;1.00
18690;DHT22;9782;52.930;15.562;2023-06-26T01:09:34;16.60;1.00
18690;DHT22;9782;52.930;15.562;2023-06-26T01:12:01;16.60;1.00
18690;DHT22;9782;52.930;15.562;2023-06-26T01:14:29;16.50;1.00
18690;DHT22;9782;52.930;15.562;2023-06-26T01:16:59;16.50;39.00
18690;DHT22;9782;52.930;15.562;2023-06-26T01:19:29;16.50;99.90
18690;DHT22;9782;52.930;15.562;2023-06-26T01:22:00;16.50;99.90
18690;DHT22;9782;52.930;15.562;2023-06-26T01:24:33;16.40;99.90
18690;DHT22;9782;52.930;15.562;2023-06-26T01:27:04;16.40;99.90
18690;DHT22;9782;52.930;15.562;2023-06-26T01:29:32;16.40;99.90
18690;DHT22;9782;52.930;15.562;2023-06-26T01:32:00;16.40;99.90
18690;DHT22;9782;52.930;15.562;2023-06-26T01:34:27;16.40;99.90
18690;DHT22;9782;52.930;15.562;2023-06-26T01:36:54;16.40;99.90
18690;DHT22;9782;52.930;15.562;2023-06-26T01:39:21;16.40;1.00
18690;DHT22;9782;52.930;15.562;2023-06-26T01:41:47;16.30;1.00
18690;DHT22;9782;52.930;15.562;2023-06-26T01:44:23;16.30;1.00
18690;DHT22;9782;52.930;15.562;2023-06-26T01:46:59;16.40;1.00
18690;DHT22;9782;52.930;15.562;2023-06-26T01:49:34;16.30;1.00
18690;DHT22;9782;52.930;15.562;2023-06-26T01:52:07;16.30;1.00
18690;DHT22;9782;52.930;15.562;2023-06-26T01:54:39;16.30;1.00
18690;DHT22;9782;52.930;15.562;2023-06-26T01:57:08;16.30;1.00
18690;DHT22;9782;52.930;15.562;2023-06-26T01:59:39;16.20;1.00
18690;DHT22;9782;52.930;15.562;2023-06-26T02:02:07;16.20;1.00
18690;DHT22;9782;52.930;15.562;2023-06-26T02:04:33;16.20;1.00
18690;DHT22;9782;52.930;15.562;2023-06-26T02:07:00;16.10;1.00
18690;DHT22;9782;52.930;15.562;2023-06-26T02:09:27;16.10;1.00
18690;DHT22;9782;52.930;15.562;2023-06-26T02:11:54;16.10;1.00
18690;DHT22;9782;52.930;15.562;2023-06-26T02:14:20;16.10;1.00
18690;DHT22;9782;52.930;15.562;2023-06-26T02:16:49;16.10;1.00
18690;DHT22;9782;52.930;15.562;2023-06-26T02:19:15;16.10;1.00
18690;DHT22;9782;52.930;15.562;2023-06-26T02:21:47;16.00;1.00
18690;DHT22;9782;52.930;15.562;2023-06-26T02:24:13;16.00;1.00
18690;DHT22;9782;52.930;15.562;2023-06-26T02:26:40;16.00;1.00
18690;DHT22;9782;52.930;15.562;2023-06-26T02:29:07;16.10;1.00
18690;DHT22;9782;52.930;15.562;2023-06-26T02:31:34;16.10;1.00
18690;DHT22;9782;52.930;15.562;2023-06-26T02:34:03;16.10;1.00
18690;DHT22;9782;52.930;15.562;2023-06-26T02:36:30;16.00;6.70
18690;DHT22;9782;52.930;15.562;2023-06-26T02:38:56;16.10;42.20
18690;DHT22;9782;52.930;15.562;2023-06-26T02:41:23;16.10;99.90
18690;DHT22;9782;52.930;15.562;2023-06-26T02:43:50;16.10;99.90
18690;DHT22;9782;52.930;15.562;2023-06-26T02:46:17;16.10;99.90
18690;DHT22;9782;52.930;15.562;2023-06-26T02:48:43;16.10;99.90
18690;DHT22;9782;52.930;15.562;2023-06-26T02:51:12;16.20;40.40
18690;DHT22;9782;52.930;15.562;2023-06-26T02:53:39;16.20;1.00
18690;DHT22;9782;52.930;15.562;2023-06-26T02:56:05;16.30;1.00
18690;DHT22;9782;52.930;15.562;2023-06-26T02:58:32;16.30;1.00
18690;DHT22;9782;52.930;15.562;2023-06-26T03:00:59;16.30;1.00
18690;DHT22;9782;52.930;15.562;2023-06-26T03:03:26;16.30;1.00
18690;DHT22;9782;52.930;15.562;2023-06-26T03:05:52;16.40;1.00
18690;DHT22;9782;52.930;15.562;2023-06-26T03:08:20;16.50;1.00
18690;DHT22;9782;52.930;15.562;2023-06-26T03:10:47;16.50;99.90
18690;DHT22;9782;52.930;15.562;2023-06-26T03:13:14;16.60;99.90
18690;DHT22;9782;52.930;15.562;2023-06-26T03:15:41;16.60;99.90
18690;DHT22;9782;52.930;15.562;2023-06-26T03:18:07;16.70;99.90
18690;DHT22;9782;52.930;15.562;2023-06-26T03:20:35;16.80;99.90
18690;DHT22;9782;52.930;15.562;2023-06-26T03:23:01;16.80;87.50
18690;DHT22;9782;52.930;15.562;2023-06-26T03:25:30;16.80;61.20
18690;DHT22;9782;52.930;15.562;2023-06-26T03:27:56;16.90;5.30
18690;DHT22;9782;52.930;15.562;2023-06-26T03:30:23;17.00;1.00
18690;DHT22;9782;52.930;15.562;2023-06-26T03:32:50;17.10;1.00
18690;DHT22;9782;52.930;15.562;2023-06-26T03:35:17;17.20;1.00
18690;DHT22;9782;52.930;15.562;2023-06-26T03:37:43;17.20;1.00
18690;DHT22;9782;52.930;15.562;2023-06-26T03:40:10;17.30;1.00
18690;DHT22;9782;52.930;15.562;2023-06-26T03:42:39;17.40;1.00
18690;DHT22;9782;52.930;15.562;2023-06-26T03:45:06;17.50;99.90
18690;DHT22;9782;52.930;15.562;2023-06-26T03:47:33;17.50;1.00
18690;DHT22;9782;52.930;15.562;2023-06-26T03:49:59;17.50;1.00
18690;DHT22;9782;52.930;15.562;2023-06-26T03:52:26;17.50;1.00
18690;DHT22;9782;52.930;15.562;2023-06-26T03:54:56;17.50;1.00
18690;DHT22;9782;52.930;15.562;2023-06-26T03:57:23;17.60;1.00
18690;DHT22;9782;52.930;15.562;2023-06-26T03:59:52;17.70;47.00
18690;DHT22;9782;52.930;15.562;2023-06-26T04:02:19;18.20;1.00
18690;DHT22;9782;52.930;15.562;2023-06-26T04:04:45;19.10;99.90
18690;DHT22;9782;52.930;15.562;2023-06-26T04:07:12;20.00;1.00
18690;DHT22;9782;52.930;15.562;2023-06-26T04:09:39;20.80;1.00
18690;DHT22;9782;52.930;15.562;2023-06-26T04:12:06;21.50;1.00
18690;DHT22;9782;52.930;15.562;2023-06-26T04:14:33;22.30;99.90
18690;DHT22;9782;52.930;15.562;2023-06-26T04:17:01;23.00;1.00
18690;DHT22;9782;52.930;15.562;2023-06-26T04:19:28;23.50;1.00
18690;DHT22;9782;52.930;15.562;2023-06-26T04:21:55;23.90;99.90
18690;DHT22;9782;52.930;15.562;2023-06-26T04:24:22;24.10;99.90
18690;DHT22;9782;52.930;15.562;2023-06-26T04:26:49;24.30;99.90
18690;DHT22;9782;52.930;15.562;2023-06-26T04:29:16;24.60;69.80
18690;DHT22;9782;52.930;15.562;2023-06-26T04:31:42;24.90;1.00
18690;DHT22;9782;52.930;15.562;2023-06-26T04:34:13;25.30;1.00
18690;DHT22;9782;52.930;15.562;2023-06-26T04:36:40;25.70;1.00
18690;DHT22;9782;52.930;15.562;2023-06-26T04:39:06;26.10;1.00
18690;DHT22;9782;52.930;15.562;2023-06-26T04:41:33;26.40;1.00
18690;DHT22;9782;52.930;15.562;2023-06-26T04:44:00;26.70;1.00
18690;DHT22;9782;52.930;15.562;2023-06-26T04:46:27;27.00;1.00
18690;DHT22;9782;52.930;15.562;2023-06-26T04:48:54;27.30;1.00
18690;DHT22;9782;52.930;15.562;2023-06-26T04:51:24;27.60;99.90
18690;DHT22;9782;52.930;15.562;2023-06-26T04:53:52;27.80;99.90
18690;DHT22;9782;52.930;15.562;2023-06-26T04:56:19;28.00;99.90
18690;DHT22;9782;52.930;15.562;2023-06-26T04:58:46;28.20;99.90
18690;DHT22;9782;52.930;15.562;2023-06-26T05:01:12;28.40;99.90
18690;DHT22;9782;52.930;15.562;2023-06-26T05:03:40;28.60;99.90
18690;DHT22;9782;52.930;15.562;2023-06-26T05:06:06;28.80;99.90
18690;DHT22;9782;52.930;15.562;2023-06-26T05:08:34;28.90;99.90
18690;DHT22;9782;52.930;15.562;2023-06-26T05:11:01;28.80;99.90
18690;DHT22;9782;52.930;15.562;2023-06-26T05:13:28;28.80;99.90
18690;DHT22;9782;52.930;15.562;2023-06-26T05:15:55;28.50;99.90
18690;DHT22;9782;52.930;15.562;2023-06-26T05:18:21;28.10;99.90
18690;DHT22;9782;52.930;15.562;2023-06-26T05:20:49;27.60;99.90
18690;DHT22;9782;52.930;15.562;2023-06-26T05:23:16;27.10;99.90
18690;DHT22;9782;52.930;15.562;2023-06-26T05:25:45;26.60;99.90
18690;DHT22;9782;52.930;15.562;2023-06-26T05:28:12;26.30;99.90
18690;DHT22;9782;52.930;15.562;2023-06-26T05:30:41;25.90;99.90
18690;DHT22;9782;52.930;15.562;2023-06-26T05:33:11;25.70;99.90
18690;DHT22;9782;52.930;15.562;2023-06-26T05:35:39;25.50;99.90
18690;DHT22;9782;52.930;15.562;2023-06-26T05:38:06;25.30;99.90
18690;DHT22;9782;52.930;15.562;2023-06-26T05:40:33;25.20;99.90
18690;DHT22;9782;52.930;15.562;2023-06-26T05:43:02;25.10;99.90
18690;DHT22;9782;52.930;15.562;2023-06-26T05:45:29;25.00;99.90
18690;DHT22;9782;52.930;15.562;2023-06-26T05:47:55;24.90;99.90
18690;DHT22;9782;52.930;15.562;2023-06-26T05:50:23;24.80;99.90
18690;DHT22;9782;52.930;15.562;2023-06-26T05:52:50;24.70;99.90
18690;DHT22;9782;52.930;15.562;2023-06-26T05:55:18;24.60;99.90
18690;DHT22;9782;52.930;15.562;2023-06-26T05:57:46;24.60;99.90
18690;DHT22;9782;52.930;15.562;2023-06-26T06:00:15;24.60;99.90
18690;DHT22;9782;52.930;15.562;2023-06-26T06:02:42;24.60;99.90
18690;DHT22;9782;52.930;15.562;2023-06-26T06:05:09;24.60;99.90
18690;DHT22;9782;52.930;15.562;2023-06-26T06:07:36;24.60;99.90
18690;DHT22;9782;52.930;15.562;2023-06-26T06:10:04;24.60;99.90
18690;DHT22;9782;52.930;15.562;2023-06-26T06:12:31;24.60;99.90
18690;DHT22;9782;52.930;15.562;2023-06-26T06:14:57;24.60;99.90
18690;DHT22;9782;52.930;15.562;2023-06-26T06:17:26;24.60;99.90
18690;DHT22;9782;52.930;15.562;2023-06-26T06:19:52;24.70;99.90
18690;DHT22;9782;52.930;15.562;2023-06-26T06:22:19;24.80;99.90
18690;DHT22;9782;52.930;15.562;2023-06-26T06:24:48;24.80;99.90
18690;DHT22;9782;52.930;15.562;2023-06-26T06:27:14;24.90;99.90
18690;DHT22;9782;52.930;15.562;2023-06-26T06:29:41;25.00;99.90
18690;DHT22;9782;52.930;15.562;2023-06-26T06:32:08;25.10;99.90
18690;DHT22;9782;52.930;15.562;2023-06-26T06:34:36;25.20;99.90
18690;DHT22;9782;52.930;15.562;2023-06-26T06:37:03;25.20;99.90
18690;DHT22;9782;52.930;15.562;2023-06-26T06:39:30;25.30;99.90
18690;DHT22;9782;52.930;15.562;2023-06-26T06:41:57;25.30;99.90
18690;DHT22;9782;52.930;15.562;2023-06-26T06:44:24;25.40;99.90
18690;DHT22;9782;52.930;15.562;2023-06-26T06:46:50;25.60;99.90
18690;DHT22;9782;52.930;15.562;2023-06-26T06:49:18;25.60;99.90
18690;DHT22;9782;52.930;15.562;2023-06-26T06:51:46;25.60;99.90
18690;DHT22;9782;52.930;15.562;2023-06-26T06:54:15;25.70;99.90
18690;DHT22;9782;52.930;15.562;2023-06-26T06:56:42;25.80;99.90
18690;DHT22;9782;52.930;15.562;2023-06-26T06:59:08;25.80;99.90
18690;DHT22;9782;52.930;15.562;2023-06-26T07:01:35;25.80;99.90
18690;DHT22;9782;52.930;15.562;2023-06-26T07:04:02;25.80;99.90
18690;DHT22;9782;52.930;15.562;2023-06-26T07:06:29;25.90;99.90
18690;DHT22;9782;52.930;15.562;2023-06-26T07:08:57;26.00;99.90
18690;DHT22;9782;52.930;15.562;2023-06-26T07:11:24;26.00;99.90
18690;DHT22;9782;52.930;15.562;2023-06-26T07:13:51;26.00;99.90
18690;DHT22;9782;52.930;15.562;2023-06-26T07:16:17;26.10;99.90
18690;DHT22;9782;52.930;15.562;2023-06-26T07:18:44;26.10;99.90
18690;DHT22;9782;52.930;15.562;2023-06-26T07:21:11;26.20;99.90
18690;DHT22;9782;52.930;15.562;2023-06-26T07:23:38;26.20;99.90
18690;DHT22;9782;52.930;15.562;2023-06-26T07:26:06;26.30;99.90
18690;DHT22;9782;52.930;15.562;2023-06-26T07:28:33;26.30;99.90
18690;DHT22;9782;52.930;15.562;2023-06-26T07:30:59;26.40;99.90
18690;DHT22;9782;52.930;15.562;2023-06-26T07:33:26;26.40;99.90
18690;DHT22;9782;52.930;15.562;2023-06-26T07:35:53;26.50;99.90
18690;DHT22;9782;52.930;15.562;2023-06-26T07:38:20;26.60;99.90
18690;DHT22;9782;52.930;15.562;2023-06-26T07:40:46;26.60;99.90
18690;DHT22;9782;52.930;15.562;2023-06-26T07:43:15;26.70;99.90
18690;DHT22;9782;52.930;15.562;2023-06-26T07:45:41;26.80;99.90
18690;DHT22;9782;52.930;15.562;2023-06-26T07:48:08;26.90;99.90
18690;DHT22;9782;52.930;15.562;2023-06-26T07:50:35;27.00;99.90
18690;DHT22;9782;52.930;15.562;2023-06-26T07:53:02;26.90;99.90
18690;DHT22;9782;52.930;15.562;2023-06-26T07:55:31;27.00;99.90
18690;DHT22;9782;52.930;15.562;2023-06-26T07:57:57;27.10;99.90
18690;DHT22;9782;52.930;15.562;2023-06-26T08:00:26;27.10;99.90
18690;DHT22;9782;52.930;15.562;2023-06-26T08:02:52;27.20;99.90
18690;DHT22;9782;52.930;15.562;2023-06-26T08:05:19;27.30;99.90
18690;DHT22;9782;52.930;15.562;2023-06-26T08:07:46;27.40;99.90
18690;DHT22;9782;52.930;15.562;2023-06-26T08:10:13;27.50;99.90
18690;DHT22;9782;52.930;15.562;2023-06-26T08:12:39;27.50;99.90
18690;DHT22;9782;52.930;15.562;2023-06-26T08:15:08;27.60;99.90
18690;DHT22;9782;52.930;15.562;2023-06-26T08:17:36;27.70;99.90
18690;DHT22;9782;52.930;15.562;2023-06-26T08:20:04;27.70;99.90
18690;DHT22;9782;52.930;15.562;2023-06-26T08:22:33;27.80;99.90
18690;DHT22;9782;52.930;15.562;2023-06-26T08:25:00;27.80;99.90
18690;DHT22;9782;52.930;15.562;2023-06-26T08:27:27;27.80;99.90
18690;DHT22;9782;52.930;15.562;2023-06-26T08:29:53;27.80;99.90
18690;DHT22;9782;52.930;15.562;2023-06-26T08:32:20;27.90;99.90
18690;DHT22;9782;52.930;15.562;2023-06-26T08:34:48;27.90;99.90
18690;DHT22;9782;52.930;15.562;2023-06-26T08:37:16;28.00;99.90
18690;DHT22;9782;52.930;15.562;2023-06-26T08:39:42;28.00;99.90
18690;DHT22;9782;52.930;15.562;2023-06-26T08:42:09;28.00;99.90
18690;DHT22;9782;52.930;15.562;2023-06-26T08:44:36;28.10;99.90
18690;DHT22;9782;52.930;15.562;2023-06-26T08:47:03;28.10;99.90
18690;DHT22;9782;52.930;15.562;2023-06-26T08:49:46;28.20;99.90
18690;DHT22;9782;52.930;15.562;2023-06-26T08:52:17;28.20;99.90
18690;DHT22;9782;52.930;15.562;2023-06-26T08:54:46;28.20;99.90
18690;DHT22;9782;52.930;15.562;2023-06-26T08:57:18;28.30;99.90
18690;DHT22;9782;52.930;15.562;2023-06-26T08:59:46;28.40;99.90
18690;DHT22;9782;52.930;15.562;2023-06-26T09:02:13;28.50;99.90
18690;DHT22;9782;52.930;15.562;2023-06-26T09:04:40;28.60;99.90
18690;DHT22;9782;52.930;15.562;2023-06-26T09:07:07;28.60;99.90
18690;DHT22;9782;52.930;15.562;2023-06-26T09:09:35;28.70;99.90
18690;DHT22;9782;52.930;15.562;2023-06-26T09:12:04;28.70;99.90
18690;DHT22;9782;52.930;15.562;2023-06-26T09:14:31;28.70;99.90
18690;DHT22;9782;52.930;15.562;2023-06-26T09:16:58;28.70;99.90
18690;DHT22;9782;52.930;15.562;2023-06-26T09:19:25;28.70;99.90
18690;DHT22;9782;52.930;15.562;2023-06-26T09:21:52;28.70;99.90
18690;DHT22;9782;52.930;15.562;2023-06-26T09:24:21;28.80;99.90
18690;DHT22;9782;52.930;15.562;2023-06-26T09:26:51;28.80;99.90
18690;DHT22;9782;52.930;15.562;2023-06-26T09:29:18;28.90;99.90
18690;DHT22;9782;52.930;15.562;2023-06-26T09:31:45;29.00;99.90
18690;DHT22;9782;52.930;15.562;2023-06-26T09:34:12;29.10;99.90
18690;DHT22;9782;52.930;15.562;2023-06-26T09:36:39;29.20;99.90
18690;DHT22;9782;52.930;15.562;2023-06-26T09:39:08;29.30;99.90
18690;DHT22;9782;52.930;15.562;2023-06-26T09:41:37;29.10;99.90
18690;DHT22;9782;52.930;15.562;2023-06-26T09:44:06;29.00;99.90
18690;DHT22;9782;52.930;15.562;2023-06-26T09:46:34;28.90;99.90
18690;DHT22;9782;52.930;15.562;2023-06-26T09:49:05;28.80;99.90
18690;DHT22;9782;52.930;15.562;2023-06-26T09:51:32;28.90;99.90
18690;DHT22;9782;52.930;15.562;2023-06-26T09:54:00;29.00;99.90
18690;DHT22;9782;52.930;15.562;2023-06-26T09:56:27;29.30;99.90
18690;DHT22;9782;52.930;15.562;2023-06-26T09:58:56;29.40;99.90
18690;DHT22;9782;52.930;15.562;2023-06-26T10:01:25;29.60;99.90
18690;DHT22;9782;52.930;15.562;2023-06-26T10:03:53;29.70;99.90
18690;DHT22;9782;52.930;15.562;2023-06-26T10:06:24;29.90;99.90
18690;DHT22;9782;52.930;15.562;2023-06-26T10:08:53;30.10;99.90
18690;DHT22;9782;52.930;15.562;2023-06-26T10:11:21;29.90;99.90
18690;DHT22;9782;52.930;15.562;2023-06-26T10:13:51;29.90;99.90
18690;DHT22;9782;52.930;15.562;2023-06-26T10:16:23;30.00;99.90
18690;DHT22;9782;52.930;15.562;2023-06-26T10:18:53;30.10;99.90
18690;DHT22;9782;52.930;15.562;2023-06-26T10:21:22;30.00;99.90
18690;DHT22;9782;52.930;15.562;2023-06-26T10:23:51;29.80;99.90
18690;DHT22;9782;52.930;15.562;2023-06-26T10:26:21;29.90;99.90
18690;DHT22;9782;52.930;15.562;2023-06-26T10:28:50;30.00;99.90
18690;DHT22;9782;52.930;15.562;2023-06-26T10:31:20;30.20;99.90
18690;DHT22;9782;52.930;15.562;2023-06-26T10:33:48;30.20;99.90
18690;DHT22;9782;52.930;15.562;2023-06-26T10:36:17;30.30;99.90
18690;DHT22;9782;52.930;15.562;2023-06-26T10:38:51;30.60;99.90
18690;DHT22;9782;52.930;15.562;2023-06-26T10:41:22;30.90;99.90
18690;DHT22;9782;52.930;15.562;2023-06-26T10:43:51;31.20;99.90
18690;DHT22;9782;52.930;15.562;2023-06-26T10:46:18;31.40;99.90
18690;DHT22;9782;52.930;15.562;2023-06-26T10:48:58;31.40;98.40
18690;DHT22;9782;52.930;15.562;2023-06-26T10:51:27;31.40;97.00
18690;DHT22;9782;52.930;15.562;2023-06-26T10:53:55;31.50;97.70
18690;DHT22;9782;52.930;15.562;2023-06-26T10:56:25;31.60;96.20
18690;DHT22;9782;52.930;15.562;2023-06-26T10:59:17;31.60;93.50
18690;DHT22;9782;52.930;15.562;2023-06-26T11:01:45;31.60;92.70
18690;DHT22;9782;52.930;15.562;2023-06-26T11:04:13;31.70;87.80
18690;DHT22;9782;52.930;15.562;2023-06-26T11:06:45;31.80;83.60
18690;DHT22;9782;52.930;15.562;2023-06-26T11:09:15;31.70;72.60
18690;DHT22;9782;52.930;15.562;2023-06-26T11:11:58;31.70;67.90
18690;DHT22;9782;52.930;15.562;2023-06-26T11:14:30;31.70;73.90
18690;DHT22;9782;52.930;15.562;2023-06-26T11:16:58;31.70;74.60
18690;DHT22;9782;52.930;15.562;2023-06-26T11:19:26;31.60;73.40
18690;DHT22;9782;52.930;15.562;2023-06-26T11:22:01;31.60;67.40
18690;DHT22;9782;52.930;15.562;2023-06-26T11:24:29;31.80;64.60
18690;DHT22;9782;52.930;15.562;2023-06-26T11:27:00;32.00;66.30
18690;DHT22;9782;52.930;15.562;2023-06-26T11:29:27;32.30;65.00
18690;DHT22;9782;52.930;15.562;2023-06-26T11:31:59;32.40;57.90
18690;DHT22;9782;52.930;15.562;2023-06-26T11:34:30;32.40;58.00
18690;DHT22;9782;52.930;15.562;2023-06-26T11:36:58;32.40;56.20
18690;DHT22;9782;52.930;15.562;2023-06-26T11:39:29;32.20;54.20
18690;DHT22;9782;52.930;15.562;2023-06-26T11:41:56;32.00;54.80
18690;DHT22;9782;52.930;15.562;2023-06-26T11:44:23;32.10;53.70
18690;DHT22;9782;52.930;15.562;2023-06-26T11:46:53;32.40;79.00
18690;DHT22;9782;52.930;15.562;2023-06-26T11:49:22;32.60;54.10
18690;DHT22;9782;52.930;15.562;2023-06-26T11:51:51;32.80;52.10
18690;DHT22;9782;52.930;15.562;2023-06-26T11:54:25;32.80;50.60
18690;DHT22;9782;52.930;15.562;2023-06-26T11:56:53;32.90;47.10
18690;DHT22;9782;52.930;15.562;2023-06-26T11:59:22;33.00;46.90
18690;DHT22;9782;52.930;15.562;2023-06-26T12:01:50;32.90;43.80
18690;DHT22;9782;52.930;15.562;2023-06-26T12:04:18;32.80;41.70
18690;DHT22;9782;52.930;15.562;2023-06-26T12:06:47;32.70;42.90
18690;DHT22;9782;52.930;15.562;2023-06-26T12:09:14;32.60;41.20
18690;DHT22;9782;52.930;15.562;2023-06-26T12:11:47;32.60;41.40
18690;DHT22;9782;52.930;15.562;2023-06-26T12:14:15;32.50;39.60
18690;DHT22;9782;52.930;15.562;2023-06-26T12:16:43;32.30;38.50
18690;DHT22;9782;52.930;15.562;2023-06-26T12:19:10;32.00;35.70
18690;DHT22;9782;52.930;15.562;2023-06-26T12:21:50;31.80;37.30
18690;DHT22;9782;52.930;15.562;2023-06-26T12:24:19;31.60;38.80
18690;DHT22;9782;52.930;15.562;2023-06-26T12:26:51;31.70;37.60
18690;DHT22;9782;52.930;15.562;2023-06-26T12:29:19;31.70;40.20
18690;DHT22;9782;52.930;15.562;2023-06-26T12:31:50;31.60;36.30
18690;DHT22;9782;52.930;15.562;2023-06-26T12:34:19;31.40;36.10
18690;DHT22;9782;52.930;15.562;2023-06-26T12:36:47;31.30;36.60
18690;DHT22;9782;52.930;15.562;2023-06-26T12:39:16;31.20;36.80
18690;DHT22;9782;52.930;15.562;2023-06-26T12:41:49;31.20;39.10
18690;DHT22;9782;52.930;15.562;2023-06-26T12:44:19;31.20;40.40
18690;DHT22;9782;52.930;15.562;2023-06-26T12:46:47;31.30;40.90
18690;DHT22;9782;52.930;15.562;2023-06-26T12:49:15;31.30;39.50
18690;DHT22;9782;52.930;15.562;2023-06-26T12:51:42;31.20;35.70
18690;DHT22;9782;52.930;15.562;2023-06-26T12:54:09;31.10;37.40
18690;DHT22;9782;52.930;15.562;2023-06-26T12:56:36;31.20;38.40
18690;DHT22;9782;52.930;15.562;2023-06-26T12:59:04;31.40;40.20
18690;DHT22;9782;52.930;15.562;2023-06-26T13:01:31;31.80;42.20
18690;DHT22;9782;52.930;15.562;2023-06-26T13:03:58;32.10;38.30
18690;DHT22;9782;52.930;15.562;2023-06-26T13:06:24;32.10;36.30
18690;DHT22;9782;52.930;15.562;2023-06-26T13:08:51;32.00;35.10
18690;DHT22;9782;52.930;15.562;2023-06-26T13:11:18;31.90;34.20
18690;DHT22;9782;52.930;15.562;2023-06-26T13:13:46;31.80;32.40
18690;DHT22;9782;52.930;15.562;2023-06-26T13:16:15;31.60;55.90
18690;DHT22;9782;52.930;15.562;2023-06-26T13:18:41;31.70;33.50
18690;DHT22;9782;52.930;15.562;2023-06-26T13:21:08;31.70;33.70
18690;DHT22;9782;52.930;15.562;2023-06-26T13:23:35;31.70;32.90
18690;DHT22;9782;52.930;15.562;2023-06-26T13:26:02;31.70;32.30
18690;DHT22;9782;52.930;15.562;2023-06-26T13:28:28;31.70;30.40
18690;DHT22;9782;52.930;15.562;2023-06-26T13:30:55;31.60;30.60
18690;DHT22;9782;52.930;15.562;2023-06-26T13:33:23;31.70;31.70
18690;DHT22;9782;52.930;15.562;2023-06-26T13:35:52;31.60;29.70
18690;DHT22;9782;52.930;15.562;2023-06-26T13:38:19;31.80;32.50
18690;DHT22;9782;52.930;15.562;2023-06-26T13:40:49;32.20;33.60
18690;DHT22;9782;52.930;15.562;2023-06-26T13:43:16;32.40;32.40
18690;DHT22;9782;52.930;15.562;2023-06-26T13:45:43;32.50;30.10
18690;DHT22;9782;52.930;15.562;2023-06-26T13:48:10;32.50;28.50
18690;DHT22;9782;52.930;15.562;2023-06-26T13:50:38;32.30;28.60
18690;DHT22;9782;52.930;15.562;2023-06-26T13:53:05;32.00;27.60
18690;DHT22;9782;52.930;15.562;2023-06-26T13:55:33;31.80;27.50
18690;DHT22;9782;52.930;15.562;2023-06-26T13:57:59;31.40;27.80
18690;DHT22;9782;52.930;15.562;2023-06-26T14:00:29;31.30;28.10
18690;DHT22;9782;52.930;15.562;2023-06-26T14:02:56;31.00;27.90
18690;DHT22;9782;52.930;15.562;2023-06-26T14:05:23;31.00;28.30
18690;DHT22;9782;52.930;15.562;2023-06-26T14:07:51;31.10;27.20
18690;DHT22;9782;52.930;15.562;2023-06-26T14:10:19;31.20;29.50
18690;DHT22;9782;52.930;15.562;2023-06-26T14:12:46;31.30;30.40
18690;DHT22;9782;52.930;15.562;2023-06-26T14:15:13;31.40;32.10
18690;DHT22;9782;52.930;15.562;2023-06-26T14:17:40;31.60;31.30
18690;DHT22;9782;52.930;15.562;2023-06-26T14:20:08;32.00;53.20
18690;DHT22;9782;52.930;15.562;2023-06-26T14:22:38;32.30;30.00
18690;DHT22;9782;52.930;15.562;2023-06-26T14:25:07;32.30;28.00
18690;DHT22;9782;52.930;15.562;2023-06-26T14:27:34;32.10;25.90
18690;DHT22;9782;52.930;15.562;2023-06-26T14:30:01;31.90;24.10
18690;DHT22;9782;52.930;15.562;2023-06-26T14:32:28;31.60;25.00
18690;DHT22;9782;52.930;15.562;2023-06-26T14:34:55;31.40;25.50
18690;DHT22;9782;52.930;15.562;2023-06-26T14:37:22;31.30;24.90
18690;DHT22;9782;52.930;15.562;2023-06-26T14:39:49;31.30;26.20
18690;DHT22;9782;52.930;15.562;2023-06-26T14:42:17;31.30;27.10
18690;DHT22;9782;52.930;15.562;2023-06-26T14:44:44;31.50;27.00
18690;DHT22;9782;52.930;15.562;2023-06-26T14:47:12;31.60;27.00
18690;DHT22;9782;52.930;15.562;2023-06-26T14:49:39;31.70;27.80
18690;DHT22;9782;52.930;15.562;2023-06-26T14:52:06;31.80;26.50
18690;DHT22;9782;52.930;15.562;2023-06-26T14:54:33;31.90;28.10
18690;DHT22;9782;52.930;15.562;2023-06-26T14:57:01;32.00;28.10
18690;DHT22;9782;52.930;15.562;2023-06-26T14:59:30;32.20;27.20
18690;DHT22;9782;52.930;15.562;2023-06-26T15:01:57;32.40;25.20
18690;DHT22;9782;52.930;15.562;2023-06-26T15:04:23;32.50;24.10
18690;DHT22;9782;52.930;15.562;2023-06-26T15:06:50;32.30;21.40
18690;DHT22;9782;52.930;15.562;2023-06-26T15:09:17;32.10;20.60
18690;DHT22;9782;52.930;15.562;2023-06-26T15:11:44;31.70;18.50
18690;DHT22;9782;52.930;15.562;2023-06-26T15:14:10;31.40;19.40
18690;DHT22;9782;52.930;15.562;2023-06-26T15:16:38;31.10;20.00
18690;DHT22;9782;52.930;15.562;2023-06-26T15:19:05;31.00;20.90
18690;DHT22;9782;52.930;15.562;2023-06-26T15:21:34;30.90;21.00
18690;DHT22;9782;52.930;15.562;2023-06-26T15:24:00;30.70;21.70
18690;DHT22;9782;52.930;15.562;2023-06-26T15:26:27;30.70;24.70
18690;DHT22;9782;52.930;15.562;2023-06-26T15:28:54;30.70;25.00
18690;DHT22;9782;52.930;15.562;2023-06-26T15:31:21;30.70;25.10
18690;DHT22;9782;52.930;15.562;2023-06-26T15:33:49;30.60;26.10
18690;DHT22;9782;52.930;15.562;2023-06-26T15:36:16;30.60;27.00
18690;DHT22;9782;52.930;15.562;2023-06-26T15:38:44;30.50;28.50